Aviation Digital Data Service (ADDS)

Output produced by METARs form (1957 UTC 31 January 2023)
found at http://www.aviationweather.gov/metar/data/
 
KTHV 311953Z AUTO 32003KT 10SM OVC060 02/M02 A3018 RMK AO2 SNE25 SLP226 P0001 T00171017
KTHV 311906Z AUTO 34005KT 3SM -SN BKN035 OVC050 02/M01 A3020 RMK AO2 P0001 T00171011
KTHV 311859Z AUTO 28004KT 2SM -SN BR SCT029 BKN036 OVC050 01/M01 A3020 RMK AO2 P0001 T00111011
KTHV 311853Z AUTO 29003KT 6SM -SN FEW022 BKN036 OVC050 02/M01 A3020 RMK AO2 SLP232 P0000 T00171011
KTHV 311839Z AUTO 30005KT 3SM -SN BR SCT030 BKN036 OVC050 01/M01 A3021 RMK AO2 P0000 T00111011
KTHV 311834Z AUTO 00000KT 2SM -SN SCT028 BKN036 OVC050 01/M02 A3020 RMK AO2 P0000 T00111017
KTHV 311829Z AUTO 31003KT 1 3/4SM -SN BKN028 BKN036 OVC050 01/M02 A3021 RMK AO2 P0000 T00111017
KTHV 311819Z AUTO VRB05KT 2SM -SN BKN036 OVC050 02/M02 A3021 RMK AO2 P0000 T00171022
KTHV 311753Z AUTO 35005KT 4SM -SN OVC055 03/M03 A3022 RMK AO2 SNB42 SLP238 P0000 60000 T00281028 10039 20028 58008
KTHV 311653Z AUTO 34008KT 10SM OVC060 03/M04 A3023 RMK AO2 SLP242 T00331044
KTHV 311553Z AUTO 32006KT 10SM OVC060 03/M04 A3024 RMK AO2 SLP246 T00331044
KTHV 311453Z AUTO 34006KT 10SM OVC060 03/M04 A3024 RMK AO2 SLP245 T00281044 51018
KTHV 311353Z AUTO 34008KT 10SM OVC065 03/M04 A3023 RMK AO2 SLP241 T00331044
KTHV 311253Z AUTO 33006KT 10SM OVC060 03/M02 A3022 RMK AO2 SLP237 T00331022
KTHV 311153Z AUTO 33006KT 10SM OVC050 04/M01 A3019 RMK AO2 SLP227 T00391011 10083 20039 53027
KTHV 311053Z AUTO 32006KT 10SM OVC044 04/00 A3016 RMK AO2 SLP217 T00390000
KTHV 310953Z AUTO 34006KT 10SM OVC034 05/01 A3012 RMK AO2 SLP204 T00500006
KTHV 310853Z AUTO 35010KT 10SM OVC030 07/01 A3011 RMK AO2 SLP198 T00670011 51017
KTHV 310849Z AUTO 35011KT 10SM OVC030 07/01 A3010 RMK AO2
KTHV 310753Z AUTO 33005KT 10SM BKN027 OVC035 08/04 A3008 RMK AO2 SLP188 T00830039
KTHV 310653Z AUTO 27004KT 10SM FEW037 OVC050 07/04 A3006 RMK AO2 SLP181 T00720039
KTHV 310553Z AUTO 29003KT 10SM SCT043 BKN070 06/03 A3006 RMK AO2 SLP182 T00560028 10111 20050 55007
KTHV 310453Z AUTO 21006KT 10SM CLR 08/04 A3005 RMK AO2 SLP180 T00830039 401390006
KTHV 310353Z AUTO 00000KT 10SM BKN050 BKN060 OVC075 10/04 A3008 RMK AO2 SLP188 T01000039
KTHV 310253Z AUTO 00000KT 10SM BKN041 OVC090 09/04 A3008 RMK AO2 SLP189 T00940039 50002
KTHV 310153Z AUTO 20006KT 10SM OVC043 10/04 A3009 RMK AO2 SLP192 T01000039
KTHV 310053Z AUTO 00000KT 10SM OVC043 11/04 A3007 RMK AO2 SLP188 T01060044
KTHV 302353Z AUTO 00000KT 10SM OVC100 11/04 A3007 RMK AO2 SLP187 T01060044 10139 20100 51001
KTHV 302253Z AUTO 18005KT 10SM OVC095 12/04 A3006 RMK AO2 SLP185 T01170044
KTHV 302153Z AUTO 25005KT 10SM FEW041 SCT050 12/04 A3009 RMK AO2 SLP195 T01220044
KTHV 302053Z AUTO 22009KT 10SM FEW037 13/04 A3007 RMK AO2 SLP186 T01330044 55018
KTHV 301953Z AUTO 22005KT 10SM CLR 13/04 A3005 RMK AO2 SLP179 T01330044
KTHV 301853Z AUTO 18005KT 10SM BKN040 13/05 A3007 RMK AO2 PRESFR SLP188 T01280050
KTHV 301753Z AUTO 21007KT 10SM OVC044 11/04 A3012 RMK AO2 SLP204 T01110039 10111 20011 58023
KTHV 301653Z AUTO 22004KT 10SM OVC043 10/04 A3016 RMK AO2 SLP219 T01000039
KTHV 301553Z AUTO 20005KT 10SM OVC045 09/04 A3019 RMK AO2 SLP227 T00940044
KTHV 301453Z AUTO 20006KT 10SM OVC043 08/04 A3019 RMK AO2 SLP228 T00830039 51012
KTHV 301353Z AUTO VRB03KT 9SM OVC044 05/03 A3019 RMK AO2 SLP228 T00500033
KTHV 301253Z AUTO 00000KT 6SM BR OVC046 02/02 A3016 RMK AO2 SLP220 T00220017
KTHV 301153Z AUTO 00000KT 6SM BR OVC046 01/01 A3015 RMK AO2 SLP216 T00110006 10044 20006 58006
KTHV 301053Z AUTO 00000KT 7SM CLR 01/00 A3017 RMK AO2 SLP222 T00110000
KTHV 300953Z AUTO 00000KT 10SM CLR 03/02 A3016 RMK AO2 SLP220 T00280017
KTHV 300853Z AUTO 00000KT 10SM CLR 02/01 A3017 RMK AO2 SLP223 T00220011 55000